sensor_id;sensor_type;location;lat;lon;timestamp;P1;durP1;ratioP1;P2;durP2;ratioP2
17614;SDS011;8926;49.720;6.576;2023-02-10T00:01:38;21.20;;;15.73;;
17614;SDS011;8926;49.720;6.576;2023-02-10T00:04:04;21.00;;;15.47;;
17614;SDS011;8926;49.720;6.576;2023-02-10T00:06:29;17.10;;;14.47;;
17614;SDS011;8926;49.720;6.576;2023-02-10T00:08:56;21.03;;;15.23;;
17614;SDS011;8926;49.720;6.576;2023-02-10T00:11:23;20.33;;;15.07;;
17614;SDS011;8926;49.720;6.576;2023-02-10T00:14:09;28.03;;;17.73;;
17614;SDS011;8926;49.720;6.576;2023-02-10T00:16:35;21.23;;;16.03;;
17614;SDS011;8926;49.720;6.576;2023-02-10T00:19:01;18.70;;;14.70;;
17614;SDS011;8926;49.720;6.576;2023-02-10T00:21:27;17.97;;;14.97;;
17614;SDS011;8926;49.720;6.576;2023-02-10T00:23:52;21.83;;;15.70;;
17614;SDS011;8926;49.720;6.576;2023-02-10T00:26:17;21.47;;;15.90;;
17614;SDS011;8926;49.720;6.576;2023-02-10T00:28:43;27.50;;;18.30;;
17614;SDS011;8926;49.720;6.576;2023-02-10T00:31:09;22.80;;;16.93;;
17614;SDS011;8926;49.720;6.576;2023-02-10T00:33:38;22.30;;;15.53;;
17614;SDS011;8926;49.720;6.576;2023-02-10T00:36:04;17.33;;;13.53;;
17614;SDS011;8926;49.720;6.576;2023-02-10T00:38:30;22.43;;;15.67;;
17614;SDS011;8926;49.720;6.576;2023-02-10T00:40:55;19.53;;;14.13;;
17614;SDS011;8926;49.720;6.576;2023-02-10T00:43:25;17.47;;;13.90;;
17614;SDS011;8926;49.720;6.576;2023-02-10T00:45:51;19.50;;;14.90;;
17614;SDS011;8926;49.720;6.576;2023-02-10T00:48:16;17.07;;;13.53;;
17614;SDS011;8926;49.720;6.576;2023-02-10T00:50:41;16.73;;;14.40;;
17614;SDS011;8926;49.720;6.576;2023-02-10T00:53:07;16.47;;;13.63;;
17614;SDS011;8926;49.720;6.576;2023-02-10T00:55:32;19.80;;;14.87;;
17614;SDS011;8926;49.720;6.576;2023-02-10T00:57:57;19.33;;;15.13;;
17614;SDS011;8926;49.720;6.576;2023-02-10T01:00:22;18.77;;;14.80;;
17614;SDS011;8926;49.720;6.576;2023-02-10T01:02:48;23.97;;;16.80;;
17614;SDS011;8926;49.720;6.576;2023-02-10T01:05:13;17.97;;;14.50;;
17614;SDS011;8926;49.720;6.576;2023-02-10T01:07:38;19.27;;;14.13;;
17614;SDS011;8926;49.720;6.576;2023-02-10T01:10:04;18.60;;;14.37;;
17614;SDS011;8926;49.720;6.576;2023-02-10T01:12:29;15.27;;;13.43;;
17614;SDS011;8926;49.720;6.576;2023-02-10T01:14:54;17.40;;;14.47;;
17614;SDS011;8926;49.720;6.576;2023-02-10T01:17:20;18.57;;;14.77;;
17614;SDS011;8926;49.720;6.576;2023-02-10T01:19:45;20.27;;;13.50;;
17614;SDS011;8926;49.720;6.576;2023-02-10T01:22:12;15.00;;;12.07;;
17614;SDS011;8926;49.720;6.576;2023-02-10T01:24:38;18.63;;;14.63;;
17614;SDS011;8926;49.720;6.576;2023-02-10T01:27:03;18.27;;;14.57;;
17614;SDS011;8926;49.720;6.576;2023-02-10T01:29:28;21.53;;;15.17;;
17614;SDS011;8926;49.720;6.576;2023-02-10T01:31:53;17.17;;;13.83;;
17614;SDS011;8926;49.720;6.576;2023-02-10T01:34:19;25.67;;;16.20;;
17614;SDS011;8926;49.720;6.576;2023-02-10T01:36:44;18.53;;;14.17;;
17614;SDS011;8926;49.720;6.576;2023-02-10T01:39:09;14.73;;;13.00;;
17614;SDS011;8926;49.720;6.576;2023-02-10T01:41:34;19.50;;;14.23;;
17614;SDS011;8926;49.720;6.576;2023-02-10T01:44:56;17.67;;;13.87;;
17614;SDS011;8926;49.720;6.576;2023-02-10T01:46:51;18.13;;;14.23;;
17614;SDS011;8926;49.720;6.576;2023-02-10T01:49:21;17.10;;;13.83;;
17614;SDS011;8926;49.720;6.576;2023-02-10T01:54:41;18.37;;;13.50;;
17614;SDS011;8926;49.720;6.576;2023-02-10T01:57:14;19.93;;;13.70;;
17614;SDS011;8926;49.720;6.576;2023-02-10T01:59:41;15.00;;;13.13;;
17614;SDS011;8926;49.720;6.576;2023-02-10T02:02:07;15.30;;;13.03;;
17614;SDS011;8926;49.720;6.576;2023-02-10T02:04:35;15.37;;;12.70;;
17614;SDS011;8926;49.720;6.576;2023-02-10T02:07:07;14.23;;;12.40;;
17614;SDS011;8926;49.720;6.576;2023-02-10T02:09:32;17.67;;;13.90;;
17614;SDS011;8926;49.720;6.576;2023-02-10T02:12:09;17.30;;;14.27;;
17614;SDS011;8926;49.720;6.576;2023-02-10T02:14:55;14.77;;;12.30;;
17614;SDS011;8926;49.720;6.576;2023-02-10T02:17:37;19.33;;;14.03;;
17614;SDS011;8926;49.720;6.576;2023-02-10T02:23:12;19.73;;;15.27;;
17614;SDS011;8926;49.720;6.576;2023-02-10T02:25:53;25.20;;;17.77;;
17614;SDS011;8926;49.720;6.576;2023-02-10T02:31:35;15.43;;;13.83;;
17614;SDS011;8926;49.720;6.576;2023-02-10T02:34:39;18.83;;;14.70;;
17614;SDS011;8926;49.720;6.576;2023-02-10T02:37:17;15.20;;;13.57;;
17614;SDS011;8926;49.720;6.576;2023-02-10T02:39:50;17.97;;;13.67;;
17614;SDS011;8926;49.720;6.576;2023-02-10T02:42:27;15.43;;;13.33;;
17614;SDS011;8926;49.720;6.576;2023-02-10T02:44:59;14.77;;;11.93;;
17614;SDS011;8926;49.720;6.576;2023-02-10T02:47:31;14.13;;;12.63;;
17614;SDS011;8926;49.720;6.576;2023-02-10T02:50:19;15.93;;;13.80;;
17614;SDS011;8926;49.720;6.576;2023-02-10T02:52:56;21.40;;;17.07;;
17614;SDS011;8926;49.720;6.576;2023-02-10T02:58:33;19.83;;;15.00;;
17614;SDS011;8926;49.720;6.576;2023-02-10T03:01:08;17.60;;;14.60;;
17614;SDS011;8926;49.720;6.576;2023-02-10T03:03:38;16.93;;;14.40;;
17614;SDS011;8926;49.720;6.576;2023-02-10T03:06:03;24.60;;;16.57;;
17614;SDS011;8926;49.720;6.576;2023-02-10T03:08:29;19.43;;;15.43;;
17614;SDS011;8926;49.720;6.576;2023-02-10T03:10:57;20.17;;;14.93;;
17614;SDS011;8926;49.720;6.576;2023-02-10T03:13:23;21.93;;;16.43;;
17614;SDS011;8926;49.720;6.576;2023-02-10T03:15:48;16.93;;;14.57;;
17614;SDS011;8926;49.720;6.576;2023-02-10T03:18:14;18.57;;;15.60;;
17614;SDS011;8926;49.720;6.576;2023-02-10T03:20:39;21.33;;;16.50;;
17614;SDS011;8926;49.720;6.576;2023-02-10T03:23:05;19.83;;;16.90;;
17614;SDS011;8926;49.720;6.576;2023-02-10T03:25:30;25.80;;;17.90;;
17614;SDS011;8926;49.720;6.576;2023-02-10T03:27:57;23.60;;;17.63;;
17614;SDS011;8926;49.720;6.576;2023-02-10T03:30:22;21.67;;;16.10;;
17614;SDS011;8926;49.720;6.576;2023-02-10T03:32:47;23.33;;;17.50;;
17614;SDS011;8926;49.720;6.576;2023-02-10T03:35:13;20.40;;;16.27;;
17614;SDS011;8926;49.720;6.576;2023-02-10T03:37:39;16.80;;;14.07;;
17614;SDS011;8926;49.720;6.576;2023-02-10T03:40:04;19.17;;;15.30;;
17614;SDS011;8926;49.720;6.576;2023-02-10T03:42:30;19.50;;;15.03;;
17614;SDS011;8926;49.720;6.576;2023-02-10T03:44:55;23.87;;;16.60;;
17614;SDS011;8926;49.720;6.576;2023-02-10T03:47:20;18.33;;;14.40;;
17614;SDS011;8926;49.720;6.576;2023-02-10T03:49:46;14.97;;;13.37;;
17614;SDS011;8926;49.720;6.576;2023-02-10T03:52:11;15.77;;;13.23;;
17614;SDS011;8926;49.720;6.576;2023-02-10T03:54:36;16.13;;;13.70;;
17614;SDS011;8926;49.720;6.576;2023-02-10T03:57:02;19.27;;;15.13;;
17614;SDS011;8926;49.720;6.576;2023-02-10T03:59:27;15.83;;;13.40;;
17614;SDS011;8926;49.720;6.576;2023-02-10T04:01:52;16.83;;;14.30;;
17614;SDS011;8926;49.720;6.576;2023-02-10T04:04:17;16.43;;;13.53;;
17614;SDS011;8926;49.720;6.576;2023-02-10T04:06:43;17.73;;;13.80;;
17614;SDS011;8926;49.720;6.576;2023-02-10T04:09:08;19.27;;;14.87;;
17614;SDS011;8926;49.720;6.576;2023-02-10T04:11:33;14.73;;;13.20;;
17614;SDS011;8926;49.720;6.576;2023-02-10T04:13:59;16.47;;;13.60;;
17614;SDS011;8926;49.720;6.576;2023-02-10T04:16:24;14.87;;;13.30;;
17614;SDS011;8926;49.720;6.576;2023-02-10T04:18:52;27.93;;;18.63;;
17614;SDS011;8926;49.720;6.576;2023-02-10T04:21:19;23.03;;;19.07;;
17614;SDS011;8926;49.720;6.576;2023-02-10T04:23:44;21.53;;;15.77;;
17614;SDS011;8926;49.720;6.576;2023-02-10T04:26:10;18.67;;;15.37;;
17614;SDS011;8926;49.720;6.576;2023-02-10T04:28:35;19.03;;;15.07;;
17614;SDS011;8926;49.720;6.576;2023-02-10T04:31:00;14.63;;;13.03;;
17614;SDS011;8926;49.720;6.576;2023-02-10T04:33:26;15.53;;;13.90;;
17614;SDS011;8926;49.720;6.576;2023-02-10T04:35:52;17.23;;;14.17;;
17614;SDS011;8926;49.720;6.576;2023-02-10T04:38:18;14.70;;;13.03;;
17614;SDS011;8926;49.720;6.576;2023-02-10T04:40:45;13.17;;;11.87;;
17614;SDS011;8926;49.720;6.576;2023-02-10T04:43:10;15.63;;;13.50;;
17614;SDS011;8926;49.720;6.576;2023-02-10T04:45:37;15.37;;;13.77;;
17614;SDS011;8926;49.720;6.576;2023-02-10T04:48:03;19.00;;;15.87;;
17614;SDS011;8926;49.720;6.576;2023-02-10T04:50:28;16.13;;;13.93;;
17614;SDS011;8926;49.720;6.576;2023-02-10T04:52:53;16.53;;;14.13;;
17614;SDS011;8926;49.720;6.576;2023-02-10T04:55:19;14.43;;;12.50;;
17614;SDS011;8926;49.720;6.576;2023-02-10T04:57:44;13.73;;;12.20;;
17614;SDS011;8926;49.720;6.576;2023-02-10T05:00:10;14.03;;;12.53;;
17614;SDS011;8926;49.720;6.576;2023-02-10T05:02:35;17.87;;;14.27;;
17614;SDS011;8926;49.720;6.576;2023-02-10T05:05:01;16.30;;;13.97;;
17614;SDS011;8926;49.720;6.576;2023-02-10T05:07:26;22.00;;;16.77;;
17614;SDS011;8926;49.720;6.576;2023-02-10T05:09:52;25.77;;;18.97;;
17614;SDS011;8926;49.720;6.576;2023-02-10T05:12:17;25.90;;;18.20;;
17614;SDS011;8926;49.720;6.576;2023-02-10T05:14:42;23.67;;;18.43;;
17614;SDS011;8926;49.720;6.576;2023-02-10T05:17:07;22.80;;;17.10;;
17614;SDS011;8926;49.720;6.576;2023-02-10T05:19:33;20.40;;;15.73;;
17614;SDS011;8926;49.720;6.576;2023-02-10T05:21:58;17.73;;;15.17;;
17614;SDS011;8926;49.720;6.576;2023-02-10T05:24:23;17.97;;;14.10;;
17614;SDS011;8926;49.720;6.576;2023-02-10T05:26:49;15.10;;;13.37;;
17614;SDS011;8926;49.720;6.576;2023-02-10T05:29:14;19.90;;;14.97;;
17614;SDS011;8926;49.720;6.576;2023-02-10T05:31:40;17.57;;;14.03;;
17614;SDS011;8926;49.720;6.576;2023-02-10T05:34:06;14.47;;;12.97;;
17614;SDS011;8926;49.720;6.576;2023-02-10T05:36:31;16.63;;;14.10;;
17614;SDS011;8926;49.720;6.576;2023-02-10T05:38:57;13.87;;;11.50;;
17614;SDS011;8926;49.720;6.576;2023-02-10T05:41:40;13.80;;;12.40;;
17614;SDS011;8926;49.720;6.576;2023-02-10T05:44:06;15.27;;;13.67;;
17614;SDS011;8926;49.720;6.576;2023-02-10T05:46:31;16.43;;;14.67;;
17614;SDS011;8926;49.720;6.576;2023-02-10T05:48:56;15.50;;;12.63;;
17614;SDS011;8926;49.720;6.576;2023-02-10T05:51:22;15.47;;;12.67;;
17614;SDS011;8926;49.720;6.576;2023-02-10T05:53:47;12.63;;;11.37;;
17614;SDS011;8926;49.720;6.576;2023-02-10T05:56:12;14.23;;;12.77;;
17614;SDS011;8926;49.720;6.576;2023-02-10T05:58:38;14.30;;;12.73;;
17614;SDS011;8926;49.720;6.576;2023-02-10T06:01:07;15.10;;;13.50;;
17614;SDS011;8926;49.720;6.576;2023-02-10T06:03:33;14.53;;;11.90;;
17614;SDS011;8926;49.720;6.576;2023-02-10T06:05:59;13.60;;;12.23;;
17614;SDS011;8926;49.720;6.576;2023-02-10T06:08:24;14.23;;;12.77;;
17614;SDS011;8926;49.720;6.576;2023-02-10T06:10:50;17.27;;;15.13;;
17614;SDS011;8926;49.720;6.576;2023-02-10T06:13:15;18.13;;;14.97;;
17614;SDS011;8926;49.720;6.576;2023-02-10T06:15:41;15.97;;;14.13;;
17614;SDS011;8926;49.720;6.576;2023-02-10T06:18:06;14.93;;;13.13;;
17614;SDS011;8926;49.720;6.576;2023-02-10T06:20:31;13.27;;;11.97;;
17614;SDS011;8926;49.720;6.576;2023-02-10T06:22:57;13.60;;;12.20;;
17614;SDS011;8926;49.720;6.576;2023-02-10T06:25:22;15.00;;;13.17;;
17614;SDS011;8926;49.720;6.576;2023-02-10T06:27:47;19.03;;;15.27;;
17614;SDS011;8926;49.720;6.576;2023-02-10T06:30:12;22.33;;;17.17;;
17614;SDS011;8926;49.720;6.576;2023-02-10T06:32:38;19.17;;;15.47;;
17614;SDS011;8926;49.720;6.576;2023-02-10T06:35:03;18.57;;;14.87;;
17614;SDS011;8926;49.720;6.576;2023-02-10T06:37:29;20.87;;;16.47;;
17614;SDS011;8926;49.720;6.576;2023-02-10T06:39:55;18.50;;;15.23;;
17614;SDS011;8926;49.720;6.576;2023-02-10T06:42:20;18.43;;;15.47;;
17614;SDS011;8926;49.720;6.576;2023-02-10T06:44:46;18.70;;;14.90;;
17614;SDS011;8926;49.720;6.576;2023-02-10T06:47:11;22.93;;;17.67;;
17614;SDS011;8926;49.720;6.576;2023-02-10T06:49:36;17.83;;;15.47;;
17614;SDS011;8926;49.720;6.576;2023-02-10T06:52:02;15.73;;;14.20;;
17614;SDS011;8926;49.720;6.576;2023-02-10T06:54:28;17.47;;;15.57;;
17614;SDS011;8926;49.720;6.576;2023-02-10T06:56:53;17.40;;;15.50;;
17614;SDS011;8926;49.720;6.576;2023-02-10T06:59:18;17.53;;;14.50;;
17614;SDS011;8926;49.720;6.576;2023-02-10T07:01:44;16.57;;;14.50;;
17614;SDS011;8926;49.720;6.576;2023-02-10T07:04:10;15.60;;;13.57;;
17614;SDS011;8926;49.720;6.576;2023-02-10T07:06:35;15.83;;;13.87;;
17614;SDS011;8926;49.720;6.576;2023-02-10T07:09:01;14.37;;;12.87;;
17614;SDS011;8926;49.720;6.576;2023-02-10T07:11:28;13.97;;;12.63;;
17614;SDS011;8926;49.720;6.576;2023-02-10T07:13:54;13.83;;;12.27;;
17614;SDS011;8926;49.720;6.576;2023-02-10T07:16:19;21.63;;;15.60;;
17614;SDS011;8926;49.720;6.576;2023-02-10T07:18:45;24.23;;;18.77;;
17614;SDS011;8926;49.720;6.576;2023-02-10T07:21:10;19.63;;;16.17;;
17614;SDS011;8926;49.720;6.576;2023-02-10T07:23:35;18.43;;;15.60;;
17614;SDS011;8926;49.720;6.576;2023-02-10T07:26:01;15.63;;;13.50;;
17614;SDS011;8926;49.720;6.576;2023-02-10T07:28:26;17.07;;;13.77;;
17614;SDS011;8926;49.720;6.576;2023-02-10T07:30:51;15.37;;;13.87;;
17614;SDS011;8926;49.720;6.576;2023-02-10T07:33:17;16.90;;;14.47;;
17614;SDS011;8926;49.720;6.576;2023-02-10T07:35:42;18.27;;;16.00;;
17614;SDS011;8926;49.720;6.576;2023-02-10T07:38:08;18.67;;;15.40;;
17614;SDS011;8926;49.720;6.576;2023-02-10T07:40:33;15.37;;;13.77;;
17614;SDS011;8926;49.720;6.576;2023-02-10T07:42:59;16.40;;;14.33;;
17614;SDS011;8926;49.720;6.576;2023-02-10T07:45:24;18.87;;;15.77;;
17614;SDS011;8926;49.720;6.576;2023-02-10T07:47:51;16.53;;;14.73;;
17614;SDS011;8926;49.720;6.576;2023-02-10T07:50:17;20.47;;;17.07;;
17614;SDS011;8926;49.720;6.576;2023-02-10T07:52:42;22.27;;;17.20;;
17614;SDS011;8926;49.720;6.576;2023-02-10T07:55:08;26.00;;;19.13;;
17614;SDS011;8926;49.720;6.576;2023-02-10T07:57:34;24.13;;;18.93;;
17614;SDS011;8926;49.720;6.576;2023-02-10T07:59:59;24.47;;;19.43;;
17614;SDS011;8926;49.720;6.576;2023-02-10T08:02:25;29.37;;;20.30;;
17614;SDS011;8926;49.720;6.576;2023-02-10T08:04:50;22.97;;;17.90;;
17614;SDS011;8926;49.720;6.576;2023-02-10T08:07:19;18.47;;;16.43;;
17614;SDS011;8926;49.720;6.576;2023-02-10T08:09:44;19.63;;;16.20;;
17614;SDS011;8926;49.720;6.576;2023-02-10T08:12:10;25.13;;;17.97;;
17614;SDS011;8926;49.720;6.576;2023-02-10T08:14:35;19.07;;;15.47;;
17614;SDS011;8926;49.720;6.576;2023-02-10T08:17:00;18.60;;;15.00;;
17614;SDS011;8926;49.720;6.576;2023-02-10T08:19:25;14.30;;;12.90;;
17614;SDS011;8926;49.720;6.576;2023-02-10T08:21:51;16.00;;;14.33;;
17614;SDS011;8926;49.720;6.576;2023-02-10T08:24:16;24.93;;;19.17;;
17614;SDS011;8926;49.720;6.576;2023-02-10T08:26:41;20.33;;;16.60;;
17614;SDS011;8926;49.720;6.576;2023-02-10T08:29:07;18.47;;;15.87;;
17614;SDS011;8926;49.720;6.576;2023-02-10T08:31:32;16.93;;;15.13;;
17614;SDS011;8926;49.720;6.576;2023-02-10T08:33:58;20.70;;;15.80;;
17614;SDS011;8926;49.720;6.576;2023-02-10T08:36:23;19.13;;;15.30;;
17614;SDS011;8926;49.720;6.576;2023-02-10T08:38:49;20.00;;;15.40;;
17614;SDS011;8926;49.720;6.576;2023-02-10T08:41:15;20.23;;;16.60;;
17614;SDS011;8926;49.720;6.576;2023-02-10T08:43:41;24.47;;;18.07;;
17614;SDS011;8926;49.720;6.576;2023-02-10T08:46:06;23.00;;;16.53;;
17614;SDS011;8926;49.720;6.576;2023-02-10T08:48:32;16.27;;;14.57;;
17614;SDS011;8926;49.720;6.576;2023-02-10T08:50:58;24.00;;;19.43;;
17614;SDS011;8926;49.720;6.576;2023-02-10T08:53:23;21.63;;;18.47;;
17614;SDS011;8926;49.720;6.576;2023-02-10T08:55:59;24.37;;;19.57;;
17614;SDS011;8926;49.720;6.576;2023-02-10T08:58:30;30.37;;;21.43;;
17614;SDS011;8926;49.720;6.576;2023-02-10T09:00:55;25.80;;;20.20;;
17614;SDS011;8926;49.720;6.576;2023-02-10T09:03:20;25.30;;;20.33;;
17614;SDS011;8926;49.720;6.576;2023-02-10T09:05:46;26.07;;;19.80;;
17614;SDS011;8926;49.720;6.576;2023-02-10T09:08:13;22.57;;;18.43;;
17614;SDS011;8926;49.720;6.576;2023-02-10T09:10:39;23.77;;;18.93;;
17614;SDS011;8926;49.720;6.576;2023-02-10T09:13:05;24.50;;;19.33;;
17614;SDS011;8926;49.720;6.576;2023-02-10T09:15:33;22.83;;;18.97;;
17614;SDS011;8926;49.720;6.576;2023-02-10T09:17:59;27.67;;;22.07;;
17614;SDS011;8926;49.720;6.576;2023-02-10T09:20:24;28.97;;;21.67;;
17614;SDS011;8926;49.720;6.576;2023-02-10T09:22:49;28.07;;;21.47;;
17614;SDS011;8926;49.720;6.576;2023-02-10T09:25:15;24.00;;;18.93;;
17614;SDS011;8926;49.720;6.576;2023-02-10T09:27:42;22.60;;;19.23;;
17614;SDS011;8926;49.720;6.576;2023-02-10T09:30:07;30.07;;;21.07;;
17614;SDS011;8926;49.720;6.576;2023-02-10T09:32:33;26.00;;;20.33;;
17614;SDS011;8926;49.720;6.576;2023-02-10T09:34:58;30.87;;;22.83;;
17614;SDS011;8926;49.720;6.576;2023-02-10T09:37:23;27.57;;;21.73;;
17614;SDS011;8926;49.720;6.576;2023-02-10T09:39:49;25.77;;;19.70;;
17614;SDS011;8926;49.720;6.576;2023-02-10T09:42:26;24.23;;;19.90;;
17614;SDS011;8926;49.720;6.576;2023-02-10T09:45:24;22.40;;;18.03;;
17614;SDS011;8926;49.720;6.576;2023-02-10T09:53:36;23.33;;;17.90;;
17614;SDS011;8926;49.720;6.576;2023-02-10T09:56:05;20.87;;;16.63;;
17614;SDS011;8926;49.720;6.576;2023-02-10T10:01:18;29.10;;;21.67;;
17614;SDS011;8926;49.720;6.576;2023-02-10T10:06:51;34.47;;;24.27;;
17614;SDS011;8926;49.720;6.576;2023-02-10T10:11:57;21.33;;;17.93;;
17614;SDS011;8926;49.720;6.576;2023-02-10T10:14:25;32.47;;;21.33;;
17614;SDS011;8926;49.720;6.576;2023-02-10T10:19:52;28.00;;;21.07;;
17614;SDS011;8926;49.720;6.576;2023-02-10T10:22:52;32.03;;;22.63;;
17614;SDS011;8926;49.720;6.576;2023-02-10T10:30:47;22.47;;;17.73;;
17614;SDS011;8926;49.720;6.576;2023-02-10T10:36:13;20.10;;;17.70;;
17614;SDS011;8926;49.720;6.576;2023-02-10T10:38:49;21.53;;;17.60;;
17614;SDS011;8926;49.720;6.576;2023-02-10T10:41:16;20.30;;;16.63;;
17614;SDS011;8926;49.720;6.576;2023-02-10T10:46:17;14.97;;;13.47;;
17614;SDS011;8926;49.720;6.576;2023-02-10T10:48:55;14.17;;;12.80;;
17614;SDS011;8926;49.720;6.576;2023-02-10T10:51:20;23.70;;;16.40;;
17614;SDS011;8926;49.720;6.576;2023-02-10T10:53:47;18.07;;;15.43;;
17614;SDS011;8926;49.720;6.576;2023-02-10T11:01:39;25.20;;;20.23;;
17614;SDS011;8926;49.720;6.576;2023-02-10T11:04:09;28.10;;;20.03;;
17614;SDS011;8926;49.720;6.576;2023-02-10T11:06:36;22.77;;;17.10;;
17614;SDS011;8926;49.720;6.576;2023-02-10T11:09:02;19.07;;;15.80;;
17614;SDS011;8926;49.720;6.576;2023-02-10T11:11:40;15.00;;;13.50;;
17614;SDS011;8926;49.720;6.576;2023-02-10T11:14:12;21.33;;;17.13;;
17614;SDS011;8926;49.720;6.576;2023-02-10T11:16:41;23.03;;;18.80;;
17614;SDS011;8926;49.720;6.576;2023-02-10T11:19:16;30.60;;;21.40;;
17614;SDS011;8926;49.720;6.576;2023-02-10T11:21:43;34.70;;;22.70;;
17614;SDS011;8926;49.720;6.576;2023-02-10T11:24:15;30.20;;;21.37;;
17614;SDS011;8926;49.720;6.576;2023-02-10T11:27:00;29.53;;;20.73;;
17614;SDS011;8926;49.720;6.576;2023-02-10T11:29:29;23.73;;;18.17;;
17614;SDS011;8926;49.720;6.576;2023-02-10T11:31:56;23.00;;;18.80;;
17614;SDS011;8926;49.720;6.576;2023-02-10T11:34:37;24.30;;;17.40;;
17614;SDS011;8926;49.720;6.576;2023-02-10T11:37:12;16.00;;;14.30;;
17614;SDS011;8926;49.720;6.576;2023-02-10T11:39:44;18.37;;;15.53;;
17614;SDS011;8926;49.720;6.576;2023-02-10T11:42:11;20.40;;;15.77;;
17614;SDS011;8926;49.720;6.576;2023-02-10T11:44:52;21.70;;;16.67;;
17614;SDS011;8926;49.720;6.576;2023-02-10T11:47:22;31.33;;;20.63;;
17614;SDS011;8926;49.720;6.576;2023-02-10T11:49:48;30.53;;;22.00;;
17614;SDS011;8926;49.720;6.576;2023-02-10T11:52:17;26.77;;;19.57;;
17614;SDS011;8926;49.720;6.576;2023-02-10T11:54:46;24.03;;;18.83;;
17614;SDS011;8926;49.720;6.576;2023-02-10T12:00:25;32.07;;;21.03;;
17614;SDS011;8926;49.720;6.576;2023-02-10T12:10:53;31.47;;;21.90;;
17614;SDS011;8926;49.720;6.576;2023-02-10T12:16:09;32.03;;;21.83;;
17614;SDS011;8926;49.720;6.576;2023-02-10T12:19:03;39.43;;;25.77;;
17614;SDS011;8926;49.720;6.576;2023-02-10T12:24:26;42.30;;;26.80;;
17614;SDS011;8926;49.720;6.576;2023-02-10T12:27:05;41.27;;;26.33;;
17614;SDS011;8926;49.720;6.576;2023-02-10T12:29:44;40.23;;;26.23;;
17614;SDS011;8926;49.720;6.576;2023-02-10T12:35:10;42.27;;;27.10;;
17614;SDS011;8926;49.720;6.576;2023-02-10T12:37:54;38.23;;;24.87;;
17614;SDS011;8926;49.720;6.576;2023-02-10T12:43:32;52.20;;;31.63;;
17614;SDS011;8926;49.720;6.576;2023-02-10T12:51:48;44.10;;;25.33;;
17614;SDS011;8926;49.720;6.576;2023-02-10T12:54:18;35.67;;;23.97;;
17614;SDS011;8926;49.720;6.576;2023-02-10T12:56:52;36.57;;;24.37;;
17614;SDS011;8926;49.720;6.576;2023-02-10T12:59:29;40.10;;;24.87;;
17614;SDS011;8926;49.720;6.576;2023-02-10T13:02:05;42.30;;;27.07;;
17614;SDS011;8926;49.720;6.576;2023-02-10T13:04:40;39.97;;;24.87;;
17614;SDS011;8926;49.720;6.576;2023-02-10T13:12:53;32.70;;;21.30;;
17614;SDS011;8926;49.720;6.576;2023-02-10T13:15:26;34.50;;;22.27;;
17614;SDS011;8926;49.720;6.576;2023-02-10T13:17:57;37.90;;;24.30;;
17614;SDS011;8926;49.720;6.576;2023-02-10T13:25:56;34.50;;;23.50;;
17614;SDS011;8926;49.720;6.576;2023-02-10T13:29:42;39.90;;;25.50;;
17614;SDS011;8926;49.720;6.576;2023-02-10T13:34:53;38.27;;;26.07;;
17614;SDS011;8926;49.720;6.576;2023-02-10T13:40:05;38.03;;;24.30;;
17614;SDS011;8926;49.720;6.576;2023-02-10T13:42:45;39.53;;;24.47;;
17614;SDS011;8926;49.720;6.576;2023-02-10T13:45:15;34.03;;;22.93;;
17614;SDS011;8926;49.720;6.576;2023-02-10T13:57:54;34.13;;;23.50;;
17614;SDS011;8926;49.720;6.576;2023-02-10T14:00:23;33.93;;;22.23;;
17614;SDS011;8926;49.720;6.576;2023-02-10T14:02:58;49.33;;;30.73;;
17614;SDS011;8926;49.720;6.576;2023-02-10T14:08:39;44.63;;;27.60;;
17614;SDS011;8926;49.720;6.576;2023-02-10T14:13:41;36.37;;;24.40;;
17614;SDS011;8926;49.720;6.576;2023-02-10T14:18:39;40.23;;;27.13;;
17614;SDS011;8926;49.720;6.576;2023-02-10T14:21:11;34.30;;;24.37;;
17614;SDS011;8926;49.720;6.576;2023-02-10T14:23:40;41.77;;;26.70;;
17614;SDS011;8926;49.720;6.576;2023-02-10T14:26:42;40.20;;;27.47;;
17614;SDS011;8926;49.720;6.576;2023-02-10T14:29:00;52.27;;;29.97;;
17614;SDS011;8926;49.720;6.576;2023-02-10T14:31:27;51.17;;;31.97;;
17614;SDS011;8926;49.720;6.576;2023-02-10T14:33:58;53.70;;;32.47;;
17614;SDS011;8926;49.720;6.576;2023-02-10T14:36:25;46.43;;;29.77;;
17614;SDS011;8926;49.720;6.576;2023-02-10T14:38:52;41.57;;;26.70;;
17614;SDS011;8926;49.720;6.576;2023-02-10T14:41:22;52.40;;;26.60;;
17614;SDS011;8926;49.720;6.576;2023-02-10T14:43:48;44.17;;;28.80;;
17614;SDS011;8926;49.720;6.576;2023-02-10T14:46:22;51.07;;;30.70;;
17614;SDS011;8926;49.720;6.576;2023-02-10T14:48:59;41.90;;;27.33;;
17614;SDS011;8926;49.720;6.576;2023-02-10T14:51:28;49.40;;;30.17;;
17614;SDS011;8926;49.720;6.576;2023-02-10T14:53:55;40.20;;;26.57;;
17614;SDS011;8926;49.720;6.576;2023-02-10T14:56:24;41.63;;;26.10;;
17614;SDS011;8926;49.720;6.576;2023-02-10T14:58:51;48.23;;;30.33;;
17614;SDS011;8926;49.720;6.576;2023-02-10T15:01:32;41.67;;;28.03;;
17614;SDS011;8926;49.720;6.576;2023-02-10T15:03:59;38.70;;;26.73;;
17614;SDS011;8926;49.720;6.576;2023-02-10T15:06:26;38.93;;;25.80;;
17614;SDS011;8926;49.720;6.576;2023-02-10T15:11:33;47.80;;;29.97;;
17614;SDS011;8926;49.720;6.576;2023-02-10T15:14:25;42.37;;;26.53;;
17614;SDS011;8926;49.720;6.576;2023-02-10T15:16:58;36.43;;;25.60;;
17614;SDS011;8926;49.720;6.576;2023-02-10T15:22:50;33.07;;;22.03;;
17614;SDS011;8926;49.720;6.576;2023-02-10T15:25:32;36.40;;;24.03;;
17614;SDS011;8926;49.720;6.576;2023-02-10T15:28:25;35.03;;;22.67;;
17614;SDS011;8926;49.720;6.576;2023-02-10T15:30:54;27.03;;;21.40;;
17614;SDS011;8926;49.720;6.576;2023-02-10T15:33:23;34.73;;;22.87;;
17614;SDS011;8926;49.720;6.576;2023-02-10T15:36:43;28.77;;;20.67;;
17614;SDS011;8926;49.720;6.576;2023-02-10T15:46:43;21.87;;;17.43;;
17614;SDS011;8926;49.720;6.576;2023-02-10T15:49:10;30.30;;;21.43;;
17614;SDS011;8926;49.720;6.576;2023-02-10T15:51:50;24.93;;;18.93;;
17614;SDS011;8926;49.720;6.576;2023-02-10T15:54:19;23.17;;;17.63;;
17614;SDS011;8926;49.720;6.576;2023-02-10T15:56:57;20.37;;;16.03;;
17614;SDS011;8926;49.720;6.576;2023-02-10T15:59:24;26.33;;;20.13;;
17614;SDS011;8926;49.720;6.576;2023-02-10T16:04:21;19.13;;;16.07;;
17614;SDS011;8926;49.720;6.576;2023-02-10T16:06:47;19.37;;;16.20;;
17614;SDS011;8926;49.720;6.576;2023-02-10T16:09:12;19.37;;;15.17;;
17614;SDS011;8926;49.720;6.576;2023-02-10T16:11:40;21.17;;;17.53;;
17614;SDS011;8926;49.720;6.576;2023-02-10T16:14:05;22.83;;;16.53;;
17614;SDS011;8926;49.720;6.576;2023-02-10T16:16:30;20.83;;;16.43;;
17614;SDS011;8926;49.720;6.576;2023-02-10T16:18:56;27.80;;;20.30;;
17614;SDS011;8926;49.720;6.576;2023-02-10T16:21:22;20.10;;;16.70;;
17614;SDS011;8926;49.720;6.576;2023-02-10T16:23:47;24.80;;;19.10;;
17614;SDS011;8926;49.720;6.576;2023-02-10T16:26:18;22.83;;;18.30;;
17614;SDS011;8926;49.720;6.576;2023-02-10T16:28:46;29.10;;;20.00;;
17614;SDS011;8926;49.720;6.576;2023-02-10T16:31:13;20.70;;;16.17;;
17614;SDS011;8926;49.720;6.576;2023-02-10T16:33:38;18.37;;;15.40;;
17614;SDS011;8926;49.720;6.576;2023-02-10T16:36:06;17.07;;;14.33;;
17614;SDS011;8926;49.720;6.576;2023-02-10T16:41:33;12.73;;;11.43;;
17614;SDS011;8926;49.720;6.576;2023-02-10T16:43:58;15.00;;;13.40;;
17614;SDS011;8926;49.720;6.576;2023-02-10T16:46:24;15.43;;;13.37;;
17614;SDS011;8926;49.720;6.576;2023-02-10T16:48:49;17.00;;;13.93;;
17614;SDS011;8926;49.720;6.576;2023-02-10T16:51:14;14.23;;;12.83;;